Ramona, Texas
Current Conditions -  °F | °C
As of 7:35 PM on Wednesday 22 Oct 2014 (Local Time) from KT65 Reporting Station
Overcast Overcast  
Wind Chill: 78°   Ceiling: 11000
Heat Index: 80°   Visibility: 10mi
Dew Point: 65°   Wind: 6mph
Humidity: 65%   Direction: 80°E
Pressure: 29.99"   Gusts: NA
Location:  26.1701°N, 97.9943°W
Report Text: KT65 230035Z AUTO 08005KT 10SM OVC110 26/19 A2999 RMK AO2 T02560186
Loading
Personal Weather Stations






























Interactive Weather Map
Tropical Storm Tracking
New forecast layout! Learn more

10-Day Weather Forecast

Advertisements
Track Severe Weather on mobile